Time;durP1;ratioP1;P1;durP2;ratioP2;P2;SDS_P1;SDS_P2;PMS_P1;PMS_P2;Temp;Humidity;BMP_temperature;BMP_pressure;BME280_temperature;BME280_humidity;BME280_pressure;Samples;Min_cycle;Max_cycle;Signal;HPM_P1;HPM_P2
2022/03/03 00:00:46;;;;;;;9.40;3.88;;;;;;;8.35;100.00;99821.88;7395922;19;20023;-45
2022/03/03 00:03:11;;;;;;;22.33;6.10;;;;;;;8.39;100.00;99816.94;7393209;19;20018;-45
2022/03/03 00:05:37;;;;;;;10.60;4.72;;;;;;;8.38;100.00;99809.88;7392895;19;20484;-45
2022/03/03 00:08:04;;;;;;;30.92;6.93;;;;;;;8.33;100.00;99821.56;7394205;19;20070;-45
2022/03/03 00:10:29;;;;;;;18.70;5.20;;;;;;;8.28;100.00;99811.06;7395207;19;20039;-45
2022/03/03 00:12:55;;;;;;;14.50;4.60;;;;;;;8.15;100.00;99810.41;7394117;19;20003;-46
2022/03/03 00:15:20;;;;;;;17.77;5.63;;;;;;;8.05;100.00;99808.84;7393699;19;20007;-45
2022/03/03 00:17:46;;;;;;;7.38;4.30;;;;;;;8.00;100.00;99809.44;7394312;19;20002;-45
2022/03/03 00:20:12;;;;;;;16.08;5.10;;;;;;;8.01;100.00;99799.91;7393918;19;20856;-45
2022/03/03 00:22:37;;;;;;;11.07;4.30;;;;;;;7.96;100.00;99808.84;7391464;19;20038;-45
2022/03/03 00:25:03;;;;;;;15.25;3.95;;;;;;;7.89;100.00;99792.47;7389395;19;20085;-45
2022/03/03 00:27:29;;;;;;;6.10;3.38;;;;;;;7.86;100.00;99812.81;7392630;19;20021;-46
2022/03/03 00:29:55;;;;;;;7.28;3.08;;;;;;;7.81;100.00;99791.22;7394663;19;20014;-46
2022/03/03 00:32:21;;;;;;;12.35;5.18;;;;;;;7.75;100.00;99798.63;7393009;19;20010;-45
2022/03/03 00:34:47;;;;;;;12.15;4.68;;;;;;;7.69;100.00;99794.91;7394277;19;20022;-45
2022/03/03 00:37:12;;;;;;;11.73;4.10;;;;;;;7.60;100.00;99796.41;7394395;19;20022;-45
2022/03/03 00:39:38;;;;;;;15.50;3.28;;;;;;;7.57;100.00;99800.09;7393286;19;20066;-45
2022/03/03 00:42:04;;;;;;;10.73;5.10;;;;;;;7.60;100.00;99793.63;7394075;19;20031;-45
2022/03/03 00:44:29;;;;;;;7.28;3.30;;;;;;;7.61;100.00;99781.31;7393765;19;20452;-45
2022/03/03 00:46:55;;;;;;;26.35;5.43;;;;;;;7.62;100.00;99779.34;7394079;19;20010;-45
2022/03/03 00:49:20;;;;;;;10.80;3.72;;;;;;;7.64;100.00;99776.88;7393530;19;20006;-46
2022/03/03 00:51:46;;;;;;;6.10;3.00;;;;;;;7.69;100.00;99789.38;7395442;19;20002;-45
2022/03/03 00:54:12;;;;;;;15.27;5.45;;;;;;;7.64;100.00;99790.72;7393669;19;20006;-45
2022/03/03 00:56:37;;;;;;;7.07;3.95;;;;;;;7.67;100.00;99775.19;7392956;19;20034;-46
2022/03/03 00:59:04;;;;;;;10.60;4.85;;;;;;;7.76;100.00;99773.19;7393610;19;20086;-45
2022/03/03 01:01:30;;;;;;;20.30;5.25;;;;;;;7.83;100.00;99775.69;7393462;19;20011;-46
2022/03/03 01:03:55;;;;;;;12.52;5.25;;;;;;;7.87;100.00;99773.53;7392550;19;20002;-45
2022/03/03 01:06:21;;;;;;;9.68;3.70;;;;;;;7.91;100.00;99776.16;7392400;19;20070;-46
2022/03/03 01:08:47;;;;;;;10.82;4.53;;;;;;;7.91;100.00;99768.63;7392781;19;20028;-46
2022/03/03 01:11:12;;;;;;;13.68;4.47;;;;;;;7.88;100.00;99754.91;7395405;19;20010;-50
2022/03/03 01:13:38;;;;;;;21.95;4.70;;;;;;;7.89;100.00;99759.22;7392804;19;20011;-45
2022/03/03 01:16:04;;;;;;;13.98;5.22;;;;;;;7.93;100.00;99751.50;7393131;19;20014;-51
2022/03/03 01:18:29;;;;;;;14.05;4.43;;;;;;;7.87;100.00;99745.03;7393136;19;20010;-87
2022/03/03 01:20:55;;;;;;;12.23;5.22;;;;;;;7.88;100.00;99750.16;7395684;19;20010;-90
2022/03/03 01:23:21;;;;;;;22.02;4.63;;;;;;;7.86;100.00;99755.34;7394086;19;20024;-89
2022/03/03 01:25:46;;;;;;;9.77;4.75;;;;;;;7.88;100.00;99754.91;7391118;19;20052;-86
2022/03/03 01:28:12;;;;;;;9.77;4.32;;;;;;;7.95;100.00;99754.63;7391296;19;20025;-86
2022/03/03 01:30:38;;;;;;;10.63;2.72;;;;;;;7.89;100.00;99754.44;7392923;19;20035;-85
2022/03/03 01:33:05;;;;;;;20.25;4.68;;;;;;;7.93;100.00;99752.28;7391645;19;20014;-86
2022/03/03 01:35:30;;;;;;;7.22;3.95;;;;;;;7.92;100.00;99741.66;7392736;19;20018;-86
2022/03/03 01:37:56;;;;;;;7.18;3.47;;;;;;;7.95;100.00;99743.53;7391249;19;20033;-87
2022/03/03 01:40:22;;;;;;;12.57;3.67;;;;;;;7.94;100.00;99731.66;7395927;19;20027;-86
2022/03/03 01:42:51;;;;;;;10.77;3.55;;;;;;;7.93;100.00;99721.78;7392956;19;20021;-86
2022/03/03 01:45:17;;;;;;;8.55;3.78;;;;;;;7.92;100.00;99725.81;7393033;19;20460;-86
2022/03/03 01:47:43;;;;;;;10.32;4.32;;;;;;;7.99;100.00;99724.75;7396974;19;20060;-86
2022/03/03 01:50:09;;;;;;;19.00;4.40;;;;;;;8.02;100.00;99723.78;7399172;19;20037;-86
2022/03/03 01:52:34;;;;;;;11.07;3.80;;;;;;;7.99;100.00;99722.72;7398420;19;20014;-86
2022/03/03 01:55:00;;;;;;;13.10;4.88;;;;;;;7.96;100.00;99720.09;7397428;19;20041;-86
2022/03/03 01:57:27;;;;;;;9.23;3.75;;;;;;;7.97;100.00;99710.56;7398378;19;20022;-86
2022/03/03 01:59:52;;;;;;;17.00;5.57;;;;;;;8.01;100.00;99705.63;7401149;19;20011;-86
2022/03/03 02:02:20;;;;;;;11.27;3.80;;;;;;;7.99;100.00;99702.56;7400036;19;20014;-86
2022/03/03 02:04:46;;;;;;;9.77;3.58;;;;;;;7.96;100.00;99703.47;7397229;19;20038;-85
2022/03/03 02:07:12;;;;;;;17.17;4.93;;;;;;;7.98;100.00;99698.22;7393347;19;20010;-85
2022/03/03 02:09:39;;;;;;;17.35;5.18;;;;;;;8.01;100.00;99705.63;7397205;19;20010;-86
2022/03/03 02:12:06;;;;;;;14.30;4.10;;;;;;;8.00;100.00;99684.66;7397420;19;20035;-86
2022/03/03 02:14:48;;;;;;;19.52;5.88;;;;;;;8.00;100.00;99691.00;7397088;19;20014;-86
2022/03/03 02:17:15;;;;;;;16.85;4.25;;;;;;;7.95;100.00;99690.84;7398088;19;20102;-86
2022/03/03 02:19:41;;;;;;;14.70;4.20;;;;;;;7.97;100.00;99688.38;7398105;19;20015;-86
2022/03/03 02:22:08;;;;;;;21.92;7.10;;;;;;;7.97;100.00;99693.94;7396752;19;20018;-86
2022/03/03 02:24:34;;;;;;;13.48;5.15;;;;;;;7.96;100.00;99690.38;7393903;19;20026;-87
2022/03/03 02:27:01;;;;;;;15.55;5.80;;;;;;;7.92;100.00;99686.22;7394601;19;20019;-87
2022/03/03 02:29:31;;;;;;;19.17;5.25;;;;;;;7.90;100.00;99678.38;7397856;19;20018;-87
2022/03/03 02:31:57;;;;;;;14.02;5.20;;;;;;;7.90;100.00;99683.13;7397937;19;20025;-87
2022/03/03 02:34:23;;;;;;;23.33;6.10;;;;;;;7.91;100.00;99690.19;7396526;19;20018;-87
2022/03/03 02:36:49;;;;;;;11.20;5.43;;;;;;;7.90;100.00;99677.59;7398782;19;20335;-87
2022/03/03 02:39:15;;;;;;;15.80;6.03;;;;;;;7.88;100.00;99691.16;7400272;19;20010;-88
2022/03/03 02:41:41;;;;;;;15.90;5.15;;;;;;;7.87;100.00;99678.50;7402708;19;20019;-88
2022/03/03 02:44:06;;;;;;;15.98;4.78;;;;;;;7.85;100.00;99676.19;7397994;19;20022;-88
2022/03/03 02:46:32;;;;;;;15.68;5.28;;;;;;;7.87;100.00;99681.28;7398019;19;20021;-87
2022/03/03 02:48:58;;;;;;;27.73;7.15;;;;;;;7.90;100.00;99677.59;7400449;19;20010;-86
2022/03/03 02:51:24;;;;;;;13.45;4.55;;;;;;;7.92;100.00;99680.66;7402370;19;20365;-88
2022/03/03 02:53:49;;;;;;;15.25;5.97;;;;;;;8.00;100.00;99677.13;7394451;19;20049;-86
2022/03/03 02:56:15;;;;;;;17.48;5.85;;;;;;;8.04;100.00;99671.41;7394448;19;20014;-88
2022/03/03 02:58:41;;;;;;;9.32;4.45;;;;;;;8.05;100.00;99672.97;7397185;19;20019;-88
2022/03/03 03:01:08;;;;;;;21.15;7.03;;;;;;;8.04;100.00;99666.66;7402771;19;20010;-87
2022/03/03 03:03:34;;;;;;;20.00;5.20;;;;;;;8.04;100.00;99671.41;7399311;19;20018;-87
2022/03/03 03:06:00;;;;;;;14.05;4.38;;;;;;;8.02;100.00;99662.78;7396181;19;20022;-86
2022/03/03 03:08:25;;;;;;;14.00;4.28;;;;;;;8.04;100.00;99657.53;7401488;19;20023;-86
2022/03/03 03:10:51;;;;;;;20.60;6.65;;;;;;;8.04;100.00;99660.31;7402545;19;20042;-88
2022/03/03 03:13:17;;;;;;;17.65;5.43;;;;;;;8.05;100.00;99659.88;7397041;19;20034;-86
2022/03/03 03:15:43;;;;;;;24.52;6.13;;;;;;;8.06;100.00;99653.09;7395147;19;20023;-87
2022/03/03 03:18:12;;;;;;;12.48;4.40;;;;;;;8.08;100.00;99658.16;7397957;19;20019;-91
2022/03/03 03:20:39;;;;;;;19.05;5.85;;;;;;;8.07;100.00;99653.88;7400135;19;20014;-91
2022/03/03 03:23:07;;;;;;;18.10;5.68;;;;;;;8.08;100.00;99656.16;7399551;19;20022;-90
2022/03/03 03:25:32;;;;;;;14.20;5.28;;;;;;;8.10;100.00;99659.25;7396535;19;20038;-91
2022/03/03 03:27:58;;;;;;;33.30;7.30;;;;;;;8.12;100.00;99662.31;7397156;19;20010;-90
2022/03/03 03:30:23;;;;;;;29.88;6.15;;;;;;;8.14;100.00;99662.63;7399970;19;20028;-90
2022/03/03 03:32:49;;;;;;;26.75;6.15;;;;;;;8.12;100.00;99651.22;7396242;19;20014;-91
2022/03/03 03:35:14;;;;;;;32.70;9.52;;;;;;;8.13;100.00;99652.00;7395855;19;20011;-91
2022/03/03 03:37:40;;;;;;;13.02;5.50;;;;;;;8.14;100.00;99659.09;7398256;19;20029;-90
2022/03/03 03:40:08;;;;;;;28.02;7.65;;;;;;;8.14;100.00;99659.84;7398792;19;20015;-92
2022/03/03 03:42:34;;;;;;;17.63;6.25;;;;;;;8.15;100.00;99649.53;7397354;19;20026;-91
2022/03/03 03:45:00;;;;;;;13.13;4.32;;;;;;;8.14;100.00;99648.00;7394696;19;20043;-90
2022/03/03 03:47:25;;;;;;;18.77;6.53;;;;;;;8.14;100.00;99648.00;7395275;19;20015;-90
2022/03/03 03:49:51;;;;;;;27.83;5.65;;;;;;;8.13;100.00;99638.13;7396127;19;20022;-92
2022/03/03 03:52:17;;;;;;;33.25;6.95;;;;;;;8.15;100.00;99639.22;7396232;19;20010;-91
2022/03/03 03:54:42;;;;;;;21.90;7.50;;;;;;;8.17;100.00;99630.41;7396242;19;20018;-91
2022/03/03 03:57:08;;;;;;;13.95;5.72;;;;;;;8.19;100.00;99630.72;7397363;19;20010;-88
2022/03/03 03:59:33;;;;;;;21.23;6.05;;;;;;;8.19;100.00;99633.50;7397056;19;20015;-88
2022/03/03 04:01:59;;;;;;;18.80;4.55;;;;;;;8.17;100.00;99635.97;7397625;19;20018;-92
2022/03/03 04:04:25;;;;;;;20.98;5.80;;;;;;;8.12;100.00;99634.59;7397612;19;20018;-91
2022/03/03 04:06:50;;;;;;;15.77;7.03;;;;;;;8.12;100.00;99642.16;7395204;19;20014;-91
2022/03/03 04:09:16;;;;;;;35.13;7.53;;;;;;;8.13;100.00;99652.78;7395343;19;20041;-92
2022/03/03 04:11:41;;;;;;;32.67;6.97;;;;;;;8.12;100.00;99645.69;7401015;19;20018;-91
2022/03/03 04:14:07;;;;;;;16.45;5.93;;;;;;;8.13;100.00;99652.00;7396302;19;20389;-91
2022/03/03 04:16:32;;;;;;;28.63;7.55;;;;;;;8.15;100.00;99638.44;7395971;19;20010;-91
2022/03/03 04:18:58;;;;;;;11.27;4.60;;;;;;;8.13;100.00;99646.44;7397224;19;20021;-91
2022/03/03 04:21:23;;;;;;;27.95;6.75;;;;;;;8.09;100.00;99651.38;7399444;19;20010;-90
2022/03/03 04:23:49;;;;;;;18.30;4.38;;;;;;;8.10;100.00;99647.41;7395712;19;20007;-91
2022/03/03 04:26:15;;;;;;;16.00;6.93;;;;;;;8.12;100.00;99644.94;7396152;19;20018;-91
2022/03/03 04:28:41;;;;;;;14.93;5.32;;;;;;;8.14;100.00;99653.56;7396970;19;20011;-90
2022/03/03 04:31:06;;;;;;;15.48;5.65;;;;;;;8.15;100.00;99649.53;7400344;19;20074;-90
2022/03/03 04:33:32;;;;;;;30.95;8.10;;;;;;;8.17;100.00;99638.75;7395558;19;20015;-90
2022/03/03 04:35:58;;;;;;;17.45;5.68;;;;;;;8.21;100.00;99644.91;7393492;19;20464;-91
2022/03/03 04:38:25;;;;;;;13.57;6.13;;;;;;;8.25;100.00;99639.97;7396698;19;20461;-92
2022/03/03 04:40:51;;;;;;;21.33;7.03;;;;;;;8.27;100.00;99643.09;7400406;19;20015;-90
2022/03/03 04:43:16;;;;;;;25.55;8.90;;;;;;;8.26;100.00;99636.00;7396507;19;20396;-90
2022/03/03 04:45:45;;;;;;;20.52;6.93;;;;;;;8.25;100.00;99637.22;7394919;19;20048;-90
2022/03/03 04:48:10;;;;;;;22.70;7.63;;;;;;;8.23;100.00;99632.09;7394234;19;20014;-91
2022/03/03 04:50:36;;;;;;;20.27;6.75;;;;;;;8.17;100.00;99624.88;7397223;19;20022;-91
2022/03/03 04:53:02;;;;;;;18.58;5.47;;;;;;;8.13;100.00;99624.25;7393665;19;20496;-92
2022/03/03 04:55:28;;;;;;;30.23;8.75;;;;;;;8.08;100.00;99622.09;7393654;19;20024;-91
2022/03/03 04:57:54;;;;;;;28.42;7.45;;;;;;;8.07;100.00;99612.25;7395696;19;20326;-91
2022/03/03 05:00:19;;;;;;;16.40;6.32;;;;;;;8.07;100.00;99615.03;7396797;19;20026;-91
2022/03/03 05:02:45;;;;;;;20.17;6.07;;;;;;;8.04;100.00;99611.19;7395134;19;20015;-91
2022/03/03 05:05:11;;;;;;;31.27;8.50;;;;;;;8.00;100.00;99610.56;7394473;19;20022;-93
2022/03/03 05:07:37;;;;;;;31.13;7.93;;;;;;;7.98;100.00;99617.81;7393151;19;20010;-95
2022/03/03 05:10:03;;;;;;;24.60;5.65;;;;;;;7.97;100.00;99610.75;7394860;19;20026;-92
2022/03/03 05:12:29;;;;;;;15.77;6.55;;;;;;;7.96;100.00;99598.88;7392245;19;20014;-88
2022/03/03 05:14:54;;;;;;;23.83;5.18;;;;;;;7.94;100.00;99606.88;7393149;19;20019;-92
2022/03/03 05:17:20;;;;;;;29.55;7.68;;;;;;;7.95;100.00;99607.66;7395380;19;20015;-88
2022/03/03 05:19:45;;;;;;;11.43;5.60;;;;;;;7.96;100.00;99609.19;7397720;19;20015;-88
2022/03/03 05:22:11;;;;;;;16.33;7.43;;;;;;;7.98;100.00;99606.72;7401067;19;20747;-87
2022/03/03 05:24:38;;;;;;;22.90;6.30;;;;;;;7.96;100.00;99604.41;7399336;19;20018;-88
2022/03/03 05:27:04;;;;;;;19.05;5.55;;;;;;;7.95;100.00;99594.56;7398907;19;20023;-89
2022/03/03 05:29:30;;;;;;;29.08;8.13;;;;;;;7.97;100.00;99594.09;7402675;19;20066;-88
2022/03/03 05:31:58;;;;;;;21.05;6.45;;;;;;;8.01;100.00;99591.94;7402239;19;20078;-89
2022/03/03 05:34:28;;;;;;;14.55;5.82;;;;;;;8.02;100.00;99604.56;7401078;19;20026;-88
2022/03/03 05:36:54;;;;;;;26.65;6.85;;;;;;;7.96;100.00;99600.88;7400586;19;20022;-89
2022/03/03 05:39:21;;;;;;;39.10;6.15;;;;;;;8.04;100.00;99593.75;7402184;19;20028;-90
2022/03/03 05:41:46;;;;;;;19.52;7.25;;;;;;;8.05;100.00;99595.31;7401796;19;20031;-90
2022/03/03 05:44:12;;;;;;;33.75;6.47;;;;;;;8.04;100.00;99597.31;7401349;19;20022;-89
2022/03/03 05:46:42;;;;;;;17.45;4.85;;;;;;;8.04;100.00;99593.75;7398216;19;20021;-89
2022/03/03 05:49:08;;;;;;;19.33;10.23;;;;;;;8.05;100.00;99600.88;7403920;19;20022;-88
2022/03/03 05:51:34;;;;;;;20.10;7.13;;;;;;;8.04;100.00;99596.53;7404753;19;20066;-87
2022/03/03 05:54:01;;;;;;;22.90;7.45;;;;;;;8.06;100.00;99597.63;7400465;19;20027;-88
2022/03/03 05:56:31;;;;;;;20.70;7.45;;;;;;;8.09;100.00;99601.47;7398781;19;20014;-88
2022/03/03 05:59:01;;;;;;;13.00;5.72;;;;;;;8.15;100.00;99613.47;7400931;19;20018;-89
2022/03/03 06:01:27;;;;;;;24.20;7.10;;;;;;;8.17;100.00;99599.91;7405568;19;20010;-89
2022/03/03 06:03:56;;;;;;;30.13;7.40;;;;;;;8.16;100.00;99601.94;7398854;19;20031;-90
2022/03/03 06:06:28;;;;;;;27.90;8.15;;;;;;;8.14;100.00;99598.09;7397533;19;20017;-89
2022/03/03 06:08:54;;;;;;;29.98;5.78;;;;;;;8.20;100.00;99601.75;7400781;19;20010;-90
2022/03/03 06:11:21;;;;;;;20.52;6.25;;;;;;;8.22;100.00;99591.75;7402847;19;20394;-90
2022/03/03 06:13:48;;;;;;;20.48;7.72;;;;;;;8.24;100.00;99602.38;7398095;19;20014;-90
2022/03/03 06:16:18;;;;;;;23.08;7.85;;;;;;;8.24;100.00;99585.72;7400287;19;20018;-90
2022/03/03 06:18:49;;;;;;;15.43;4.55;;;;;;;8.27;100.00;99598.69;7401819;19;20015;-90
2022/03/03 06:21:16;;;;;;;18.10;7.97;;;;;;;8.30;100.00;99594.97;7405216;19;20010;-90
2022/03/03 06:23:43;;;;;;;16.55;5.47;;;;;;;8.31;100.00;99596.53;7399201;19;20014;-90
2022/03/03 06:26:12;;;;;;;24.75;7.15;;;;;;;8.34;100.00;99576.16;7397718;19;20035;-90
2022/03/03 06:28:39;;;;;;;17.17;7.10;;;;;;;8.35;100.00;99575.72;7399305;19;20078;-90
2022/03/03 06:31:06;;;;;;;19.50;8.10;;;;;;;8.32;100.00;99587.72;7400835;19;20011;-90
2022/03/03 06:33:33;;;;;;;13.50;6.80;;;;;;;8.29;100.00;99582.34;7399601;19;20100;-90
2022/03/03 06:35:59;;;;;;;33.00;9.30;;;;;;;8.27;100.00;99573.75;7397168;19;20038;-89
2022/03/03 06:38:26;;;;;;;21.63;8.02;;;;;;;8.28;100.00;99580.81;7399076;19;20029;-90
2022/03/03 06:40:54;;;;;;;16.10;6.55;;;;;;;8.28;100.00;99589.13;7401846;19;20014;-89
2022/03/03 06:43:19;;;;;;;33.25;9.32;;;;;;;8.29;100.00;99588.66;7400136;19;20468;-89
2022/03/03 06:45:45;;;;;;;22.42;6.55;;;;;;;8.32;100.00;99598.06;7397585;19;20018;-89
2022/03/03 06:48:10;;;;;;;21.55;7.63;;;;;;;8.39;100.00;99606.06;7396215;19;20361;-90
2022/03/03 06:50:39;;;;;;;33.10;7.70;;;;;;;8.38;100.00;99607.31;7398021;19;20477;-88
2022/03/03 06:53:07;;;;;;;5.90;4.40;;;;;;;8.42;100.00;99607.13;7397403;19;20034;-87
2022/03/03 06:55:33;;;;;;;13.80;5.45;;;;;;;8.44;100.00;99605.44;7394486;19;20018;-87
2022/03/03 06:57:59;;;;;;;27.15;8.05;;;;;;;8.46;100.00;99591.88;7397398;19;20045;-87
2022/03/03 07:00:28;;;;;;;37.28;10.77;;;;;;;8.50;100.00;99598.00;7399068;19;20010;-87
2022/03/03 07:02:53;;;;;;;35.75;10.27;;;;;;;8.51;100.00;99593.25;7397644;19;20015;-87
2022/03/03 07:05:21;;;;;;;26.35;8.02;;;;;;;8.48;100.00;99594.94;7394032;19;20034;-87
2022/03/03 07:07:49;;;;;;;31.80;9.63;;;;;;;8.54;100.00;99598.63;7397597;19;20018;-87
2022/03/03 07:10:23;;;;;;;32.53;7.55;;;;;;;8.55;100.00;99594.63;7398889;19;20021;-87
2022/03/03 07:12:51;;;;;;;27.25;7.47;;;;;;;8.58;100.00;99601.97;7394472;19;20014;-87
2022/03/03 07:15:17;;;;;;;28.33;8.15;;;;;;;8.58;100.00;99610.31;7395383;19;20468;-87
2022/03/03 07:17:48;;;;;;;29.23;8.02;;;;;;;8.61;100.00;99614.94;7397298;19;20022;-88
2022/03/03 07:20:34;;;;;;;;;;;;;;;8.66;100.00;99606.00;7401395;19;20488;-90
2022/03/03 07:23:32;;;;;;;17.20;7.35;;;;;;;8.66;100.00;99611.53;7395987;19;19950;-87
2022/03/03 07:26:00;;;;;;;24.30;6.78;;;;;;;8.66;100.00;99613.53;7394219;19;20014;-88
2022/03/03 07:28:28;;;;;;;20.95;6.85;;;;;;;8.65;100.00;99596.09;7394519;19;20018;-88
2022/03/03 07:30:54;;;;;;;23.75;8.70;;;;;;;8.66;100.00;99600.44;7397294;19;20011;-87
2022/03/03 07:33:50;;;;;;;20.70;6.80;;;;;;;8.68;100.00;99603.50;7396281;19;20108;-88
2022/03/03 07:36:22;;;;;;;23.35;9.27;;;;;;;8.71;100.00;99597.00;7394992;19;20022;-88
2022/03/03 07:38:57;;;;;;;24.40;6.97;;;;;;;8.77;100.00;99600.66;7395298;19;20022;-88
2022/03/03 07:41:25;;;;;;;24.35;8.98;;;;;;;8.79;100.00;99592.63;7397843;19;20014;-89
2022/03/03 07:43:52;;;;;;;16.40;6.05;;;;;;;8.85;100.00;99604.66;7391791;19;20038;-88
2022/03/03 07:46:17;;;;;;;30.15;8.27;;;;;;;8.92;100.00;99606.34;7396789;19;20015;-89
2022/03/03 07:48:45;;;;;;;26.48;7.28;;;;;;;8.96;100.00;99613.25;7396469;19;20011;-89
2022/03/03 07:51:11;;;;;;;13.90;8.70;;;;;;;8.98;100.00;99610.00;7401161;19;20472;-89
2022/03/03 07:53:37;;;;;;;9.15;5.40;;;;;;;9.01;100.00;99612.59;7397369;19;20030;-88
2022/03/03 07:56:04;;;;;;;14.77;7.47;;;;;;;9.06;100.00;99603.63;7396096;19;20015;-88
2022/03/03 07:58:33;;;;;;;21.67;9.50;;;;;;;9.09;100.00;99597.13;7396078;19;20472;-88
2022/03/03 08:01:01;;;;;;;29.58;6.85;;;;;;;9.13;100.00;99605.28;7398972;19;20110;-88
2022/03/03 08:03:27;;;;;;;18.23;6.03;;;;;;;9.28;100.00;99591.47;7396344;19;20014;-89
2022/03/03 08:05:56;;;;;;;24.63;7.90;;;;;;;9.32;100.00;99600.38;7395601;19;20041;-88
2022/03/03 08:08:30;;;;;;;18.35;6.95;;;;;;;9.37;100.00;99605.28;7393724;19;20576;-91
2022/03/03 08:11:02;;;;;;;37.65;7.38;;;;;;;9.43;100.00;99603.41;7395655;19;20394;-88
2022/03/03 08:13:29;;;;;;;27.45;8.38;;;;;;;9.45;100.00;99598.91;7394969;19;20475;-87
2022/03/03 08:15:56;;;;;;;20.90;6.72;;;;;;;9.51;100.00;99612.91;7393279;19;20085;-88
2022/03/03 08:18:26;;;;;;;29.20;8.55;;;;;;;9.49;100.00;99609.84;7395973;19;20006;-90
2022/03/03 08:20:51;;;;;;;18.30;6.05;;;;;;;9.55;100.00;99616.31;7400333;19;20441;-89
2022/03/03 08:23:20;;;;;;;21.25;8.88;;;;;;;9.58;100.00;99607.00;7395358;19;20017;-88
2022/03/03 08:25:47;;;;;;;22.65;6.75;;;;;;;9.65;100.00;99604.63;7394401;19;20069;-87
2022/03/03 08:28:13;;;;;;;27.58;5.72;;;;;;;9.66;100.00;99599.81;7392846;19;20023;-87
2022/03/03 08:30:41;;;;;;;32.22;10.32;;;;;;;9.66;100.00;99605.38;7396326;19;20350;-87
2022/03/03 08:33:19;;;;;;;21.38;7.50;;;;;;;9.77;100.00;99608.38;7392945;19;20078;-86
2022/03/03 08:35:52;;;;;;;24.33;7.07;;;;;;;9.82;100.00;99605.72;7392755;19;20022;-85
2022/03/03 08:38:33;;;;;;;27.40;6.90;;;;;;;9.85;100.00;99615.88;7393576;19;20484;-86
2022/03/03 08:41:00;;;;;;;21.95;8.35;;;;;;;9.85;100.00;99629.03;7394104;19;21058;-86
2022/03/03 08:43:28;;;;;;;22.20;5.95;;;;;;;9.89;100.00;99624.06;7392284;19;20029;-86
2022/03/03 08:46:02;;;;;;;42.88;10.77;;;;;;;9.91;100.00;99629.91;7390086;19;20007;-86
2022/03/03 08:48:30;;;;;;;18.00;5.38;;;;;;;9.92;100.00;99632.22;7391594;19;20476;-88
2022/03/03 08:50:57;;;;;;;21.38;6.57;;;;;;;9.97;100.00;99632.78;7395522;19;20048;-89
2022/03/03 08:53:23;;;;;;;17.65;6.60;;;;;;;9.98;100.00;99639.91;7393602;19;20017;-89
2022/03/03 08:55:48;;;;;;;24.15;8.57;;;;;;;9.91;100.00;99630.69;7394301;19;20007;-91
2022/03/03 08:58:14;;;;;;;17.15;7.38;;;;;;;9.88;100.00;99630.84;7395981;19;20051;-91
2022/03/03 09:00:41;;;;;;;14.65;7.82;;;;;;;9.89;100.00;99632.41;7396639;19;20015;-91
2022/03/03 09:03:06;;;;;;;20.05;6.00;;;;;;;9.89;100.00;99632.41;7395722;19;20042;-91
2022/03/03 09:05:32;;;;;;;17.70;7.50;;;;;;;9.88;100.00;99641.97;7393233;19;20010;-91
2022/03/03 09:07:58;;;;;;;22.05;7.93;;;;;;;9.85;100.00;99637.38;7394267;19;20017;-90
2022/03/03 09:10:25;;;;;;;15.77;4.95;;;;;;;9.86;100.00;99644.47;7394790;19;20018;-91
2022/03/03 09:12:51;;;;;;;22.60;7.57;;;;;;;9.86;100.00;99648.03;7392621;19;20019;-90
2022/03/03 09:15:17;;;;;;;18.45;6.90;;;;;;;9.86;100.00;99650.03;7391665;19;20022;-91
2022/03/03 09:17:43;;;;;;;24.35;7.28;;;;;;;9.91;100.00;99646.59;7396154;19;20015;-90
2022/03/03 09:20:13;;;;;;;23.85;9.85;;;;;;;9.97;100.00;99650.25;7395843;19;20030;-91
2022/03/03 09:22:43;;;;;;;16.77;5.45;;;;;;;10.10;100.00;99645.19;7394207;19;20037;-89
2022/03/03 09:25:09;;;;;;;11.27;6.78;;;;;;;10.20;100.00;99646.66;7393850;19;20014;-88
2022/03/03 09:27:35;;;;;;;27.10;6.97;;;;;;;10.22;100.00;99649.75;7391878;19;20369;-88
2022/03/03 09:30:01;;;;;;;17.25;7.78;;;;;;;10.26;100.00;99639.22;7394432;19;20048;-88
2022/03/03 09:32:27;;;;;;;24.98;8.25;;;;;;;10.22;100.00;99641.38;7392464;19;20014;-89
2022/03/03 09:34:52;;;;;;;38.00;10.43;;;;;;;10.21;100.00;99653.78;7392608;19;20214;-89
2022/03/03 09:37:18;;;;;;;18.02;6.18;;;;;;;10.18;100.00;99649.16;7394567;19;20015;-88
2022/03/03 09:39:48;;;;;;;49.30;11.00;;;;;;;10.28;100.00;99650.63;7393177;19;20464;-92
2022/03/03 09:42:14;;;;;;;14.57;6.88;;;;;;;10.39;100.00;99639.69;7393425;19;20011;-93
2022/03/03 09:44:39;;;;;;;18.90;6.40;;;;;;;10.54;100.00;99643.25;7391533;19;20026;-87
2022/03/03 09:47:05;;;;;;;20.98;7.50;;;;;;;10.60;100.00;99641.31;7391168;19;20090;-87
2022/03/03 09:49:31;;;;;;;26.02;8.05;;;;;;;10.66;100.00;99644.19;7392496;19;20037;-87
2022/03/03 09:51:57;;;;;;;23.50;7.05;;;;;;;10.62;100.00;99635.28;7390362;19;20042;-88
2022/03/03 09:54:22;;;;;;;17.10;7.20;;;;;;;10.55;100.00;99644.00;7387716;19;20023;-87
2022/03/03 09:56:48;;;;;;;22.45;5.70;;;;;;;10.60;100.00;99641.31;7390441;19;20026;-87
2022/03/03 09:59:14;;;;;;;36.85;8.27;;;;;;;10.60;100.00;99635.75;7390889;19;20010;-88
2022/03/03 10:01:40;;;;;;;18.88;7.28;;;;;;;10.75;100.00;99635.72;7398658;19;20014;-90
2022/03/03 10:04:21;;;;;;;16.17;7.07;;;;;;;10.79;100.00;99644.66;7392832;19;20024;-88
2022/03/03 10:06:47;;;;;;;16.53;7.57;;;;;;;10.85;100.00;99641.97;7396643;19;20015;-90
2022/03/03 10:09:16;;;;;;;22.65;7.22;;;;;;;10.81;100.00;99646.97;7398581;19;20018;-93
2022/03/03 10:11:47;;;;;;;21.92;9.15;;;;;;;10.80;100.00;99643.44;7406389;19;20011;-94
2022/03/03 10:14:13;;;;;;;26.50;8.20;;;;;;;10.82;100.00;99642.94;7399744;19;20019;-93
2022/03/03 10:16:46;;;;;;;23.20;7.93;;;;;;;10.87;100.00;99647.84;7399526;19;20055;-92
2022/03/03 10:19:12;;;;;;;19.63;5.63;;;;;;;10.83;100.00;99648.00;7402215;19;20009;-93
2022/03/03 10:21:38;;;;;;;25.15;7.43;;;;;;;10.73;100.00;99649.38;7408352;19;20026;-95
2022/03/03 10:24:21;;;;;;;24.30;9.05;;;;;;;10.62;100.00;99638.81;7400854;19;20032;-94
2022/03/03 10:26:57;;;;;;;23.27;9.02;;;;;;;10.70;100.00;99646.81;7400777;19;20041;-95
2022/03/03 10:29:23;;;;;;;16.58;6.25;;;;;;;10.74;100.00;99634.22;7400554;19;20010;-94
2022/03/03 10:31:53;;;;;;;24.75;8.27;;;;;;;10.85;100.00;99644.75;7404684;19;20097;-95
2022/03/03 10:34:27;;;;;;;20.33;7.57;;;;;;;10.87;100.00;99642.25;7397201;19;20047;-93
2022/03/03 10:37:03;;;;;;;21.63;8.35;;;;;;;10.94;100.00;99637.06;7399252;19;20264;-93
2022/03/03 10:39:54;;;;;;;15.18;6.50;;;;;;;11.03;100.00;99639.72;7397537;19;20006;-89
2022/03/03 10:42:21;;;;;;;;;;;;;;;11.09;100.00;99640.56;7396756;19;20745;-88
2022/03/03 10:45:03;;;;;;;23.38;7.63;;;;;;;11.06;100.00;99649.13;7392022;19;19933;-91
2022/03/03 10:47:29;;;;;;;24.23;5.93;;;;;;;11.06;100.00;99649.13;7392594;19;20022;-90
2022/03/03 10:49:57;;;;;;;21.58;7.47;;;;;;;11.14;100.00;99655.84;7396070;19;20038;-89
2022/03/03 10:52:27;;;;;;;24.02;7.63;;;;;;;11.05;100.00;99658.75;7395876;19;20369;-95
2022/03/03 10:55:11;;;;;;;16.13;7.65;;;;;;;10.93;100.00;99657.03;7396937;19;20018;-93
2022/03/03 10:57:41;;;;;;;20.88;7.57;;;;;;;10.89;100.00;99650.91;7400544;19;20046;-96
2022/03/03 11:00:12;;;;;;;22.85;7.47;;;;;;;10.93;100.00;99652.25;7397317;19;20500;-87
2022/03/03 11:02:40;;;;;;;27.30;6.40;;;;;;;10.93;100.00;99665.41;7398215;19;20014;-95
2022/03/03 11:05:20;;;;;;;18.52;7.45;;;;;;;10.91;100.00;99662.34;7395218;19;20259;-89
2022/03/03 11:07:53;;;;;;;19.77;6.45;;;;;;;10.91;100.00;99665.88;7393703;19;20018;-89
2022/03/03 11:10:47;;;;;;;;;;;;;;;;;;;;;
2022/03/03 11:14:17;;;;;;;20.95;6.75;;;;;;;10.87;100.00;99670.13;7391437;19;20018;-84
2022/03/03 11:17:00;;;;;;;28.70;8.38;;;;;;;10.92;100.00;99659.06;7388830;19;20006;-83
2022/03/03 11:22:47;;;;;;;16.63;6.40;;;;;;;11.11;100.00;99667.97;7389110;19;20022;-82
2022/03/03 11:25:36;;;;;;;18.13;6.05;;;;;;;11.25;100.00;99661.59;7389803;19;20029;-83
2022/03/03 11:28:10;;;;;;;22.05;6.78;;;;;;;11.32;100.00;99661.19;7390095;19;20019;-85
2022/03/03 11:31:04;;;;;;;;;;;;;;;;;;;;;
2022/03/03 11:33:43;;;;;;;;;;;;;;;;;;;;;
2022/03/03 11:36:43;;;;;;;26.65;7.63;;;;;;;11.57;100.00;99656.94;7392504;19;20006;-92